This is the latest recevied weather packets stored in our database for station/object WMKC. If no packets are shown the sender has not sent any weather packets the latest 10 day(s).
| Time | Temp. | Humidity | Pressure | Rain* | Wind** | Luminosity | Snow |
|---|---|---|---|---|---|---|---|
| 1777184412 | 32.78° C | 55% | 1009 hPa | - | - | - | - |
| 1777183802 | 33.89° C | 52% | 1009 hPa | - | - | - | - |
| 1777180218 | 33.89° C | 52% | 1009 hPa | - | - | - | - |
| 1777176610 | 32.78° C | 55% | 1010 hPa | - | - | - | - |
| 1777173010 | 32.78° C | 55% | 1010 hPa | - | - | - | - |
| 1777169418 | 30.56° C | 62% | 1011 hPa | - | - | - | - |
| 1777165817 | 27.78° C | 74% | 1010 hPa | - | - | - | - |
| 1777162209 | 26.67° C | 78% | 1010 hPa | - | - | - | - |
| 1777158609 | 25.56° C | 83% | 1009 hPa | - | - | - | - |
| 1777157377 | 26.67° C | 78% | 1009 hPa | - | - | - | - |
| 1777155009 | 26.67° C | 78% | 1009 hPa | - | - | - | - |
| 1777151426 | 27.78° C | 74% | 1008 hPa | - | - | - | - |
| 1777147809 | 27.78° C | 78% | 1008 hPa | - | - | - | - |
| 1777144210 | 27.78° C | 78% | 1009 hPa | - | - | - | - |
| 1777140619 | 28.89° C | 74% | 1009 hPa | - | - | - | - |
| 1777137010 | 28.89° C | 74% | 1010 hPa | - | - | - | - |
| 1777133420 | 28.89° C | 74% | 1010 hPa | - | - | - | - |
| 1777129810 | 28.89° C | 74% | 1011 hPa | - | - | - | - |
| 1777126210 | 28.89° C | 74% | 1010 hPa | - | - | - | - |
| 1777122616 | 28.89° C | 74% | 1010 hPa | - | - | - | - |
| 1777119018 | 30° C | 66% | 1009 hPa | - | - | - | - |
| 1777115409 | 30° C | 70% | 1008 hPa | - | - | - | - |
| 1777111808 | 31.67° C | 59% | 1007 hPa | - | - | - | - |
| 1777108215 | 32.78° C | 55% | 1007 hPa | - | - | - | - |
| 1777104618 | 33.89° C | 52% | 1007 hPa | - | - | - | - |
* Rain since midnight (hover to see other rain measurements)
** Current wind speed in m/s (hover to see current wind gust speed)